Coolidge, Texas
Current Conditions -  °F | °C
As of 5:15 AM on Friday 28 Nov 2014 (Local Time) from KLXY Reporting Station
Clear Clear  
Wind Chill: 36°   Ceiling: Unl
Heat Index: 39°   Visibility: 10mi
Dew Point: 33°   Wind: 5mph
Humidity: 78%   Direction: 160°SSE
Pressure: 30.3"   Gusts: NA
Location:  31.75°N, 96.65°W
Report Text: KLXY 281115Z AUTO 16004KT 10SM CLR 04/01 A3030 RMK AO2 T00400005
Loading
Personal Weather Stations






























Interactive Weather Map New forecast layout! Learn more

10-Day Weather Forecast

Advertisements
Track Severe Weather on mobile